sensor_id;sensor_type;location;lat;lon;timestamp;noise_LAeq;noise_LA_min;noise_LA_max;noise_LA01;noise_LA95
4048;Laerm;2038;51.728;6.674;2023-04-06T00:02:18;37.44;32.35;40.13;;
4048;Laerm;2038;51.728;6.674;2023-04-06T00:04:44;37.61;32.35;40.43;;
4048;Laerm;2038;51.728;6.674;2023-04-06T00:07:11;37.70;32.93;40.62;;
4048;Laerm;2038;51.728;6.674;2023-04-06T00:09:37;37.80;32.93;42.09;;
4048;Laerm;2038;51.728;6.674;2023-04-06T00:12:03;38.96;32.93;52.72;;
4048;Laerm;2038;51.728;6.674;2023-04-06T00:14:40;37.53;32.93;40.13;;
4048;Laerm;2038;51.728;6.674;2023-04-06T00:17:06;37.58;32.93;40.71;;
4048;Laerm;2038;51.728;6.674;2023-04-06T00:19:32;37.60;29.92;40.23;;
4048;Laerm;2038;51.728;6.674;2023-04-06T00:21:59;37.65;32.35;40.23;;
4048;Laerm;2038;51.728;6.674;2023-04-06T00:24:25;37.52;32.35;40.71;;
4048;Laerm;2038;51.728;6.674;2023-04-06T00:26:51;37.64;31.68;40.62;;
4048;Laerm;2038;51.728;6.674;2023-04-06T00:29:17;37.85;32.35;42.82;;
4048;Laerm;2038;51.728;6.674;2023-04-06T00:31:44;37.67;30.89;40.43;;
4048;Laerm;2038;51.728;6.674;2023-04-06T00:34:10;37.82;31.68;40.43;;
4048;Laerm;2038;51.728;6.674;2023-04-06T00:36:37;37.76;31.68;40.53;;
4048;Laerm;2038;51.728;6.674;2023-04-06T00:39:03;37.61;32.35;40.23;;
4048;Laerm;2038;51.728;6.674;2023-04-06T00:41:29;37.59;33.44;40.71;;
4048;Laerm;2038;51.728;6.674;2023-04-06T00:43:56;37.61;31.68;40.43;;
4048;Laerm;2038;51.728;6.674;2023-04-06T00:46:22;37.62;32.35;40.71;;
4048;Laerm;2038;51.728;6.674;2023-04-06T00:48:48;37.55;32.35;40.43;;
4048;Laerm;2038;51.728;6.674;2023-04-06T00:51:15;38.37;32.35;43.09;;
4048;Laerm;2038;51.728;6.674;2023-04-06T00:53:41;46.42;33.44;63.07;;
4048;Laerm;2038;51.728;6.674;2023-04-06T00:56:08;37.62;28.67;40.80;;
4048;Laerm;2038;51.728;6.674;2023-04-06T00:58:36;40.37;32.35;55.35;;
4048;Laerm;2038;51.728;6.674;2023-04-06T01:01:04;37.59;32.35;41.30;;
4048;Laerm;2038;51.728;6.674;2023-04-06T01:03:31;37.59;31.68;40.33;;
4048;Laerm;2038;51.728;6.674;2023-04-06T01:05:57;37.53;31.68;40.33;;
4048;Laerm;2038;51.728;6.674;2023-04-06T01:08:24;37.60;31.68;41.14;;
4048;Laerm;2038;51.728;6.674;2023-04-06T01:10:51;37.66;32.35;40.18;;
4048;Laerm;2038;51.728;6.674;2023-04-06T01:13:17;37.71;32.35;40.43;;
4048;Laerm;2038;51.728;6.674;2023-04-06T01:15:44;37.71;31.68;40.23;;
4048;Laerm;2038;51.728;6.674;2023-04-06T01:18:10;37.90;31.68;40.43;;
4048;Laerm;2038;51.728;6.674;2023-04-06T01:20:37;37.63;32.35;40.33;;
4048;Laerm;2038;51.728;6.674;2023-04-06T01:23:03;37.74;29.57;40.62;;
4048;Laerm;2038;51.728;6.674;2023-04-06T01:25:29;37.76;32.35;40.98;;
4048;Laerm;2038;51.728;6.674;2023-04-06T01:27:56;37.80;33.44;40.43;;
4048;Laerm;2038;51.728;6.674;2023-04-06T01:30:22;37.88;32.93;40.62;;
4048;Laerm;2038;51.728;6.674;2023-04-06T01:32:48;44.87;31.68;61.44;;
4048;Laerm;2038;51.728;6.674;2023-04-06T01:35:14;40.68;32.93;54.30;;
4048;Laerm;2038;51.728;6.674;2023-04-06T01:37:41;38.19;33.44;43.29;;
4048;Laerm;2038;51.728;6.674;2023-04-06T01:40:08;37.78;31.68;40.53;;
4048;Laerm;2038;51.728;6.674;2023-04-06T01:42:35;37.77;32.35;40.62;;
4048;Laerm;2038;51.728;6.674;2023-04-06T01:45:02;41.26;33.44;56.18;;
4048;Laerm;2038;51.728;6.674;2023-04-06T01:47:28;38.13;33.44;40.89;;
4048;Laerm;2038;51.728;6.674;2023-04-06T01:49:54;38.14;33.44;40.98;;
4048;Laerm;2038;51.728;6.674;2023-04-06T01:52:20;40.19;34.31;51.62;;
4048;Laerm;2038;51.728;6.674;2023-04-06T01:54:46;38.21;32.35;40.63;;
4048;Laerm;2038;51.728;6.674;2023-04-06T01:57:13;40.25;33.44;53.43;;
4048;Laerm;2038;51.728;6.674;2023-04-06T01:59:39;39.58;33.44;54.42;;
4048;Laerm;2038;51.728;6.674;2023-04-06T02:02:05;42.55;32.35;57.69;;
4048;Laerm;2038;51.728;6.674;2023-04-06T02:04:31;39.69;32.35;52.38;;
4048;Laerm;2038;51.728;6.674;2023-04-06T02:06:58;38.22;32.93;40.89;;
4048;Laerm;2038;51.728;6.674;2023-04-06T02:09:24;38.22;32.35;40.98;;
4048;Laerm;2038;51.728;6.674;2023-04-06T02:11:50;45.14;34.69;61.90;;
4048;Laerm;2038;51.728;6.674;2023-04-06T02:14:16;41.21;33.90;55.30;;
4048;Laerm;2038;51.728;6.674;2023-04-06T02:16:43;38.67;32.35;41.68;;
4048;Laerm;2038;51.728;6.674;2023-04-06T02:19:09;38.42;33.90;41.30;;
4048;Laerm;2038;51.728;6.674;2023-04-06T02:21:35;38.31;33.44;40.98;;
4048;Laerm;2038;51.728;6.674;2023-04-06T02:24:02;43.70;34.31;58.45;;
4048;Laerm;2038;51.728;6.674;2023-04-06T02:26:28;38.59;33.44;41.06;;
4048;Laerm;2038;51.728;6.674;2023-04-06T02:28:54;40.95;34.31;57.15;;
4048;Laerm;2038;51.728;6.674;2023-04-06T02:31:21;38.43;33.90;41.38;;
4048;Laerm;2038;51.728;6.674;2023-04-06T02:33:47;38.73;34.31;43.46;;
4048;Laerm;2038;51.728;6.674;2023-04-06T02:36:13;38.25;33.44;40.89;;
4048;Laerm;2038;51.728;6.674;2023-04-06T02:38:39;44.50;33.44;63.69;;
4048;Laerm;2038;51.728;6.674;2023-04-06T02:41:06;38.52;34.31;41.14;;
4048;Laerm;2038;51.728;6.674;2023-04-06T02:43:32;38.62;34.31;41.46;;
4048;Laerm;2038;51.728;6.674;2023-04-06T02:45:58;45.17;34.31;61.56;;
4048;Laerm;2038;51.728;6.674;2023-04-06T02:48:24;43.78;35.04;57.39;;
4048;Laerm;2038;51.728;6.674;2023-04-06T02:50:51;42.25;34.69;54.57;;
4048;Laerm;2038;51.728;6.674;2023-04-06T02:53:17;43.23;33.55;57.49;;
4048;Laerm;2038;51.728;6.674;2023-04-06T02:55:43;38.33;33.44;40.88;;
4048;Laerm;2038;51.728;6.674;2023-04-06T02:58:10;38.57;34.69;46.52;;
4048;Laerm;2038;51.728;6.674;2023-04-06T03:00:37;41.43;35.04;53.75;;
4048;Laerm;2038;51.728;6.674;2023-04-06T03:03:03;41.94;35.04;58.04;;
4048;Laerm;2038;51.728;6.674;2023-04-06T03:05:29;41.32;35.36;54.75;;
4048;Laerm;2038;51.728;6.674;2023-04-06T03:07:56;38.78;33.90;41.06;;
4048;Laerm;2038;51.728;6.674;2023-04-06T03:10:22;39.05;34.69;42.22;;
4048;Laerm;2038;51.728;6.674;2023-04-06T03:12:49;48.59;36.69;61.97;;
4048;Laerm;2038;51.728;6.674;2023-04-06T03:15:15;45.95;35.36;61.21;;
4048;Laerm;2038;51.728;6.674;2023-04-06T03:17:41;42.02;35.66;53.89;;
4048;Laerm;2038;51.728;6.674;2023-04-06T03:20:08;39.85;34.69;50.08;;
4048;Laerm;2038;51.728;6.674;2023-04-06T03:22:34;42.17;35.36;54.46;;
4048;Laerm;2038;51.728;6.674;2023-04-06T03:25:01;39.32;35.66;42.59;;
4048;Laerm;2038;51.728;6.674;2023-04-06T03:27:27;42.26;35.04;57.93;;
4048;Laerm;2038;51.728;6.674;2023-04-06T03:29:53;46.31;35.04;62.43;;
4048;Laerm;2038;51.728;6.674;2023-04-06T03:32:19;41.05;35.94;53.29;;
4048;Laerm;2038;51.728;6.674;2023-04-06T03:34:46;46.64;35.66;62.22;;
4048;Laerm;2038;51.728;6.674;2023-04-06T03:37:12;45.37;36.20;57.43;;
4048;Laerm;2038;51.728;6.674;2023-04-06T03:39:38;44.41;34.69;57.73;;
4048;Laerm;2038;51.728;6.674;2023-04-06T03:42:04;46.76;35.04;63.44;;
4048;Laerm;2038;51.728;6.674;2023-04-06T03:44:31;46.20;36.20;59.93;;
4048;Laerm;2038;51.728;6.674;2023-04-06T03:46:57;49.78;35.66;64.31;;
4048;Laerm;2038;51.728;6.674;2023-04-06T03:49:24;39.34;35.04;41.96;;
4048;Laerm;2038;51.728;6.674;2023-04-06T03:51:50;42.08;35.94;54.51;;
4048;Laerm;2038;51.728;6.674;2023-04-06T03:54:16;42.95;36.34;56.13;;
4048;Laerm;2038;51.728;6.674;2023-04-06T03:56:43;48.97;36.91;59.71;;
4048;Laerm;2038;51.728;6.674;2023-04-06T03:59:09;43.68;36.20;54.77;;
4048;Laerm;2038;51.728;6.674;2023-04-06T04:01:35;42.29;35.04;59.14;;
4048;Laerm;2038;51.728;6.674;2023-04-06T04:04:01;45.55;36.20;61.25;;
4048;Laerm;2038;51.728;6.674;2023-04-06T04:06:27;47.51;37.12;63.20;;
4048;Laerm;2038;51.728;6.674;2023-04-06T04:08:54;45.37;36.91;59.29;;
4048;Laerm;2038;51.728;6.674;2023-04-06T04:11:20;44.91;36.69;57.33;;
4048;Laerm;2038;51.728;6.674;2023-04-06T04:13:46;44.86;36.69;56.43;;
4048;Laerm;2038;51.728;6.674;2023-04-06T04:16:12;47.20;36.45;61.17;;
4048;Laerm;2038;51.728;6.674;2023-04-06T04:18:39;46.81;36.69;61.19;;
4048;Laerm;2038;51.728;6.674;2023-04-06T04:21:05;47.31;37.12;62.22;;
4048;Laerm;2038;51.728;6.674;2023-04-06T04:23:31;42.04;36.45;52.61;;
4048;Laerm;2038;51.728;6.674;2023-04-06T04:25:58;43.69;36.91;59.62;;
4048;Laerm;2038;51.728;6.674;2023-04-06T04:28:24;46.44;36.91;57.73;;
4048;Laerm;2038;51.728;6.674;2023-04-06T04:30:50;46.29;36.91;57.52;;
4048;Laerm;2038;51.728;6.674;2023-04-06T04:33:17;50.27;37.88;62.89;;
4048;Laerm;2038;51.728;6.674;2023-04-06T04:35:43;52.83;36.91;65.18;;
4048;Laerm;2038;51.728;6.674;2023-04-06T04:38:09;52.92;37.70;68.21;;
4048;Laerm;2038;51.728;6.674;2023-04-06T04:40:35;47.37;37.70;59.06;;
4048;Laerm;2038;51.728;6.674;2023-04-06T04:43:02;49.22;37.88;66.31;;
4048;Laerm;2038;51.728;6.674;2023-04-06T04:45:28;50.87;38.21;68.95;;
4048;Laerm;2038;51.728;6.674;2023-04-06T04:47:54;48.45;37.52;65.84;;
4048;Laerm;2038;51.728;6.674;2023-04-06T04:50:20;49.22;37.52;62.98;;
4048;Laerm;2038;51.728;6.674;2023-04-06T04:52:47;46.78;37.52;63.06;;
4048;Laerm;2038;51.728;6.674;2023-04-06T04:55:14;46.26;36.91;60.83;;
4048;Laerm;2038;51.728;6.674;2023-04-06T04:57:40;45.02;37.70;69.47;;
4048;Laerm;2038;51.728;6.674;2023-04-06T05:00:07;46.20;36.69;58.60;;
4048;Laerm;2038;51.728;6.674;2023-04-06T05:02:33;45.56;38.21;56.39;;
4048;Laerm;2038;51.728;6.674;2023-04-06T05:05:00;46.24;37.88;60.00;;
4048;Laerm;2038;51.728;6.674;2023-04-06T05:07:26;47.92;37.12;60.54;;
4048;Laerm;2038;51.728;6.674;2023-04-06T05:09:53;47.33;36.69;57.42;;
4048;Laerm;2038;51.728;6.674;2023-04-06T05:12:19;47.14;37.52;57.71;;
4048;Laerm;2038;51.728;6.674;2023-04-06T05:14:46;43.96;36.91;54.56;;
4048;Laerm;2038;51.728;6.674;2023-04-06T05:17:12;49.71;36.77;64.58;;
4048;Laerm;2038;51.728;6.674;2023-04-06T05:19:38;46.09;37.32;58.29;;
4048;Laerm;2038;51.728;6.674;2023-04-06T05:22:05;48.20;37.52;61.03;;
4048;Laerm;2038;51.728;6.674;2023-04-06T05:24:31;45.43;37.12;56.00;;
4048;Laerm;2038;51.728;6.674;2023-04-06T05:26:57;48.86;37.88;71.85;;
4048;Laerm;2038;51.728;6.674;2023-04-06T05:29:24;47.30;38.05;61.85;;
4048;Laerm;2038;51.728;6.674;2023-04-06T05:31:51;43.04;38.37;56.92;;
4048;Laerm;2038;51.728;6.674;2023-04-06T05:34:17;47.22;38.81;59.03;;
4048;Laerm;2038;51.728;6.674;2023-04-06T05:36:44;48.58;38.05;59.27;;
4048;Laerm;2038;51.728;6.674;2023-04-06T05:39:10;45.06;38.21;57.35;;
4048;Laerm;2038;51.728;6.674;2023-04-06T05:41:38;48.80;38.81;62.45;;
4048;Laerm;2038;51.728;6.674;2023-04-06T05:44:04;48.34;38.37;60.61;;
4048;Laerm;2038;51.728;6.674;2023-04-06T05:46:30;46.28;37.88;55.12;;
4048;Laerm;2038;51.728;6.674;2023-04-06T05:48:57;47.05;37.32;58.78;;
4048;Laerm;2038;51.728;6.674;2023-04-06T05:51:23;48.64;37.53;62.01;;
4048;Laerm;2038;51.728;6.674;2023-04-06T05:53:49;49.36;38.67;60.86;;
4048;Laerm;2038;51.728;6.674;2023-04-06T05:56:16;46.72;37.70;60.65;;
4048;Laerm;2038;51.728;6.674;2023-04-06T05:58:42;47.48;37.12;64.18;;
4048;Laerm;2038;51.728;6.674;2023-04-06T06:01:08;47.18;36.45;66.18;;
4048;Laerm;2038;51.728;6.674;2023-04-06T06:03:36;46.29;36.69;60.81;;
4048;Laerm;2038;51.728;6.674;2023-04-06T06:06:04;47.67;35.94;65.80;;
4048;Laerm;2038;51.728;6.674;2023-04-06T06:08:30;45.57;36.91;59.86;;
4048;Laerm;2038;51.728;6.674;2023-04-06T06:10:57;42.56;36.45;52.79;;
4048;Laerm;2038;51.728;6.674;2023-04-06T06:13:24;47.31;37.12;64.83;;
4048;Laerm;2038;51.728;6.674;2023-04-06T06:15:51;44.87;36.91;57.24;;
4048;Laerm;2038;51.728;6.674;2023-04-06T06:18:17;47.43;38.37;58.56;;
4048;Laerm;2038;51.728;6.674;2023-04-06T06:20:43;47.77;37.70;62.27;;
4048;Laerm;2038;51.728;6.674;2023-04-06T06:23:09;46.06;37.70;58.16;;
4048;Laerm;2038;51.728;6.674;2023-04-06T06:25:36;45.47;36.69;57.99;;
4048;Laerm;2038;51.728;6.674;2023-04-06T06:28:02;47.69;35.66;59.12;;
4048;Laerm;2038;51.728;6.674;2023-04-06T06:30:28;45.69;36.45;57.65;;
4048;Laerm;2038;51.728;6.674;2023-04-06T06:32:55;46.24;36.45;61.94;;
4048;Laerm;2038;51.728;6.674;2023-04-06T06:35:21;45.09;37.12;56.34;;
4048;Laerm;2038;51.728;6.674;2023-04-06T06:37:47;45.52;36.20;58.62;;
4048;Laerm;2038;51.728;6.674;2023-04-06T06:40:13;44.35;36.69;55.67;;
4048;Laerm;2038;51.728;6.674;2023-04-06T06:42:42;51.50;36.91;68.18;;
4048;Laerm;2038;51.728;6.674;2023-04-06T06:45:09;45.14;35.04;60.81;;
4048;Laerm;2038;51.728;6.674;2023-04-06T06:47:36;45.31;36.69;67.15;;
4048;Laerm;2038;51.728;6.674;2023-04-06T06:50:02;47.21;36.91;64.56;;
4048;Laerm;2038;51.728;6.674;2023-04-06T06:52:29;44.95;35.94;60.50;;
4048;Laerm;2038;51.728;6.674;2023-04-06T06:54:55;46.10;37.12;57.91;;
4048;Laerm;2038;51.728;6.674;2023-04-06T06:57:22;46.94;37.52;58.20;;
4048;Laerm;2038;51.728;6.674;2023-04-06T06:59:48;48.07;37.12;62.21;;
4048;Laerm;2038;51.728;6.674;2023-04-06T07:02:15;44.92;37.12;56.12;;
4048;Laerm;2038;51.728;6.674;2023-04-06T07:04:41;44.35;36.45;56.13;;
4048;Laerm;2038;51.728;6.674;2023-04-06T07:07:07;45.68;36.20;56.82;;
4048;Laerm;2038;51.728;6.674;2023-04-06T07:09:35;47.81;37.32;59.90;;
4048;Laerm;2038;51.728;6.674;2023-04-06T07:12:01;47.85;37.12;61.84;;
4048;Laerm;2038;51.728;6.674;2023-04-06T07:14:28;46.82;36.20;58.64;;
4048;Laerm;2038;51.728;6.674;2023-04-06T07:16:54;44.49;36.20;63.73;;
4048;Laerm;2038;51.728;6.674;2023-04-06T07:19:20;47.52;37.70;61.53;;
4048;Laerm;2038;51.728;6.674;2023-04-06T07:21:46;49.32;37.52;65.73;;
4048;Laerm;2038;51.728;6.674;2023-04-06T07:24:15;47.48;36.91;63.08;;
4048;Laerm;2038;51.728;6.674;2023-04-06T07:26:43;46.15;37.12;59.08;;
4048;Laerm;2038;51.728;6.674;2023-04-06T07:29:09;46.79;38.21;63.13;;
4048;Laerm;2038;51.728;6.674;2023-04-06T07:31:35;43.42;36.91;55.24;;
4048;Laerm;2038;51.728;6.674;2023-04-06T07:34:02;48.79;37.17;65.36;;
4048;Laerm;2038;51.728;6.674;2023-04-06T07:36:28;47.32;37.52;63.71;;
4048;Laerm;2038;51.728;6.674;2023-04-06T07:38:54;46.83;37.12;61.24;;
4048;Laerm;2038;51.728;6.674;2023-04-06T07:41:20;47.27;38.05;62.61;;
4048;Laerm;2038;51.728;6.674;2023-04-06T07:43:47;46.48;37.70;59.38;;
4048;Laerm;2038;51.728;6.674;2023-04-06T07:46:14;47.98;37.52;60.88;;
4048;Laerm;2038;51.728;6.674;2023-04-06T07:48:40;48.19;36.69;64.34;;
4048;Laerm;2038;51.728;6.674;2023-04-06T07:51:07;47.53;37.12;60.28;;
4048;Laerm;2038;51.728;6.674;2023-04-06T07:53:34;48.77;35.94;64.39;;
4048;Laerm;2038;51.728;6.674;2023-04-06T07:56:01;43.30;35.04;59.37;;
4048;Laerm;2038;51.728;6.674;2023-04-06T07:58:27;43.81;35.36;54.70;;
4048;Laerm;2038;51.728;6.674;2023-04-06T08:00:53;47.37;36.45;60.20;;
4048;Laerm;2038;51.728;6.674;2023-04-06T08:03:20;47.32;36.69;60.01;;
4048;Laerm;2038;51.728;6.674;2023-04-06T08:05:51;46.81;35.94;60.64;;
4048;Laerm;2038;51.728;6.674;2023-04-06T08:08:19;46.82;35.04;58.26;;
4048;Laerm;2038;51.728;6.674;2023-04-06T08:10:48;43.58;35.04;57.81;;
4048;Laerm;2038;51.728;6.674;2023-04-06T08:13:14;47.76;35.04;64.44;;
4048;Laerm;2038;51.728;6.674;2023-04-06T08:15:42;47.63;36.20;61.40;;
4048;Laerm;2038;51.728;6.674;2023-04-06T08:18:09;43.87;35.66;56.55;;
4048;Laerm;2038;51.728;6.674;2023-04-06T08:20:35;44.47;35.36;55.57;;
4048;Laerm;2038;51.728;6.674;2023-04-06T08:23:01;44.82;34.69;59.88;;
4048;Laerm;2038;51.728;6.674;2023-04-06T08:25:28;45.34;35.36;58.99;;
4048;Laerm;2038;51.728;6.674;2023-04-06T08:27:54;46.97;35.94;60.41;;
4048;Laerm;2038;51.728;6.674;2023-04-06T08:30:20;45.89;35.36;61.26;;
4048;Laerm;2038;51.728;6.674;2023-04-06T08:32:47;46.14;35.94;56.39;;
4048;Laerm;2038;51.728;6.674;2023-04-06T08:35:13;48.34;35.94;59.46;;
4048;Laerm;2038;51.728;6.674;2023-04-06T08:37:40;46.82;35.36;60.44;;
4048;Laerm;2038;51.728;6.674;2023-04-06T08:40:07;44.64;35.94;55.79;;
4048;Laerm;2038;51.728;6.674;2023-04-06T08:42:39;45.42;36.45;55.32;;
4048;Laerm;2038;51.728;6.674;2023-04-06T08:45:08;45.48;36.10;59.60;;
4048;Laerm;2038;51.728;6.674;2023-04-06T08:47:36;44.69;34.69;53.49;;
4048;Laerm;2038;51.728;6.674;2023-04-06T08:50:04;44.47;35.04;56.91;;
4048;Laerm;2038;51.728;6.674;2023-04-06T08:52:32;46.61;36.77;58.21;;
4048;Laerm;2038;51.728;6.674;2023-04-06T08:55:00;45.20;35.36;58.01;;
4048;Laerm;2038;51.728;6.674;2023-04-06T08:57:27;46.31;33.44;58.12;;
4048;Laerm;2038;51.728;6.674;2023-04-06T08:59:55;42.99;33.90;57.85;;
4048;Laerm;2038;51.728;6.674;2023-04-06T09:02:22;45.54;35.36;57.85;;
4048;Laerm;2038;51.728;6.674;2023-04-06T09:04:52;46.72;36.91;61.20;;
4048;Laerm;2038;51.728;6.674;2023-04-06T09:07:19;48.00;33.90;65.28;;
4048;Laerm;2038;51.728;6.674;2023-04-06T09:09:45;50.26;34.69;65.88;;
4048;Laerm;2038;51.728;6.674;2023-04-06T09:12:31;45.68;35.04;59.98;;
4048;Laerm;2038;51.728;6.674;2023-04-06T09:15:00;47.47;35.04;62.47;;
4048;Laerm;2038;51.728;6.674;2023-04-06T09:17:32;47.64;34.31;64.50;;
4048;Laerm;2038;51.728;6.674;2023-04-06T09:20:03;47.53;34.69;66.25;;
4048;Laerm;2038;51.728;6.674;2023-04-06T09:22:38;48.20;36.20;61.26;;
4048;Laerm;2038;51.728;6.674;2023-04-06T09:25:08;48.17;36.69;61.85;;
4048;Laerm;2038;51.728;6.674;2023-04-06T09:27:37;44.85;35.36;56.33;;
4048;Laerm;2038;51.728;6.674;2023-04-06T09:30:09;47.25;36.20;60.17;;
4048;Laerm;2038;51.728;6.674;2023-04-06T09:32:51;45.85;35.86;57.86;;
4048;Laerm;2038;51.728;6.674;2023-04-06T09:35:19;48.91;35.04;64.37;;
4048;Laerm;2038;51.728;6.674;2023-04-06T09:37:50;43.29;35.66;53.17;;
4048;Laerm;2038;51.728;6.674;2023-04-06T09:40:18;49.45;35.86;63.04;;
4048;Laerm;2038;51.728;6.674;2023-04-06T09:42:50;46.94;36.69;59.91;;
4048;Laerm;2038;51.728;6.674;2023-04-06T09:45:18;47.69;36.91;59.11;;
4048;Laerm;2038;51.728;6.674;2023-04-06T09:47:46;44.38;33.44;55.92;;
4048;Laerm;2038;51.728;6.674;2023-04-06T09:50:14;48.07;34.69;64.02;;
4048;Laerm;2038;51.728;6.674;2023-04-06T09:52:49;48.53;36.91;66.39;;
4048;Laerm;2038;51.728;6.674;2023-04-06T09:55:30;47.73;35.36;64.31;;
4048;Laerm;2038;51.728;6.674;2023-04-06T09:58:10;46.13;35.04;61.11;;
4048;Laerm;2038;51.728;6.674;2023-04-06T10:01:09;47.26;35.94;62.42;;
4048;Laerm;2038;51.728;6.674;2023-04-06T10:03:56;45.45;35.04;57.46;;
4048;Laerm;2038;51.728;6.674;2023-04-06T10:06:31;44.92;30.89;60.79;;
4048;Laerm;2038;51.728;6.674;2023-04-06T10:09:04;47.60;32.35;61.09;;
4048;Laerm;2038;51.728;6.674;2023-04-06T10:11:34;47.39;32.93;63.12;;
4048;Laerm;2038;51.728;6.674;2023-04-06T10:14:01;48.46;35.04;63.23;;
4048;Laerm;2038;51.728;6.674;2023-04-06T10:16:27;46.62;32.93;59.42;;
4048;Laerm;2038;51.728;6.674;2023-04-06T10:19:04;48.18;35.36;64.66;;
4048;Laerm;2038;51.728;6.674;2023-04-06T10:21:33;46.36;33.90;62.95;;
4048;Laerm;2038;51.728;6.674;2023-04-06T10:24:07;48.55;35.04;66.22;;
4048;Laerm;2038;51.728;6.674;2023-04-06T10:26:36;45.39;33.90;60.52;;
4048;Laerm;2038;51.728;6.674;2023-04-06T10:29:06;45.25;35.94;58.47;;
4048;Laerm;2038;51.728;6.674;2023-04-06T10:31:32;44.31;31.68;62.66;;
4048;Laerm;2038;51.728;6.674;2023-04-06T10:34:01;47.60;35.94;59.87;;
4048;Laerm;2038;51.728;6.674;2023-04-06T10:36:32;49.89;35.36;65.33;;
4048;Laerm;2038;51.728;6.674;2023-04-06T10:39:08;47.98;34.69;64.78;;
4048;Laerm;2038;51.728;6.674;2023-04-06T10:41:40;48.49;35.04;61.40;;
4048;Laerm;2038;51.728;6.674;2023-04-06T10:44:07;46.83;33.44;64.62;;
4048;Laerm;2038;51.728;6.674;2023-04-06T10:46:34;41.87;32.93;55.92;;
4048;Laerm;2038;51.728;6.674;2023-04-06T10:49:12;46.93;36.20;62.15;;
4048;Laerm;2038;51.728;6.674;2023-04-06T10:51:39;45.66;33.90;58.44;;
4048;Laerm;2038;51.728;6.674;2023-04-06T10:54:07;49.40;34.69;65.87;;
4048;Laerm;2038;51.728;6.674;2023-04-06T10:56:37;51.54;36.45;64.14;;
4048;Laerm;2038;51.728;6.674;2023-04-06T10:59:06;50.31;35.66;66.06;;
4048;Laerm;2038;51.728;6.674;2023-04-06T11:01:33;45.70;35.36;56.56;;
4048;Laerm;2038;51.728;6.674;2023-04-06T11:04:00;50.27;37.32;70.28;;
4048;Laerm;2038;51.728;6.674;2023-04-06T11:06:29;46.83;35.36;58.43;;
4048;Laerm;2038;51.728;6.674;2023-04-06T11:08:57;49.00;36.91;64.72;;
4048;Laerm;2038;51.728;6.674;2023-04-06T11:11:26;49.05;36.69;64.41;;
4048;Laerm;2038;51.728;6.674;2023-04-06T11:13:55;48.05;34.31;63.56;;
4048;Laerm;2038;51.728;6.674;2023-04-06T11:16:34;48.14;37.12;60.88;;
4048;Laerm;2038;51.728;6.674;2023-04-06T11:19:03;44.35;35.04;57.65;;
4048;Laerm;2038;51.728;6.674;2023-04-06T11:24:07;49.24;36.69;61.98;;
4048;Laerm;2038;51.728;6.674;2023-04-06T11:29:12;46.45;35.94;61.08;;
4048;Laerm;2038;51.728;6.674;2023-04-06T11:31:54;47.57;38.37;62.84;;
4048;Laerm;2038;51.728;6.674;2023-04-06T11:34:25;48.62;36.45;62.26;;
4048;Laerm;2038;51.728;6.674;2023-04-06T11:36:58;47.21;35.59;63.52;;
4048;Laerm;2038;51.728;6.674;2023-04-06T11:39:27;49.02;36.91;66.84;;
4048;Laerm;2038;51.728;6.674;2023-04-06T11:42:01;48.54;36.45;67.56;;
4048;Laerm;2038;51.728;6.674;2023-04-06T11:44:40;50.10;37.32;65.24;;
4048;Laerm;2038;51.728;6.674;2023-04-06T11:47:09;46.02;35.04;58.60;;
4048;Laerm;2038;51.728;6.674;2023-04-06T11:49:41;49.34;36.91;65.09;;
4048;Laerm;2038;51.728;6.674;2023-04-06T11:52:27;49.45;38.05;67.62;;
4048;Laerm;2038;51.728;6.674;2023-04-06T11:54:54;48.06;36.20;61.38;;
4048;Laerm;2038;51.728;6.674;2023-04-06T11:57:23;47.29;34.69;62.68;;
4048;Laerm;2038;51.728;6.674;2023-04-06T11:59:52;45.42;36.20;57.32;;
4048;Laerm;2038;51.728;6.674;2023-04-06T12:02:19;43.09;35.36;56.03;;
4048;Laerm;2038;51.728;6.674;2023-04-06T12:04:46;45.34;37.12;57.52;;
4048;Laerm;2038;51.728;6.674;2023-04-06T12:07:12;43.06;36.20;55.06;;
4048;Laerm;2038;51.728;6.674;2023-04-06T12:09:38;47.52;37.70;58.93;;
4048;Laerm;2038;51.728;6.674;2023-04-06T12:12:05;49.92;36.91;69.12;;
4048;Laerm;2038;51.728;6.674;2023-04-06T12:14:31;46.93;36.45;58.23;;
4048;Laerm;2038;51.728;6.674;2023-04-06T12:16:58;46.93;36.45;62.19;;
4048;Laerm;2038;51.728;6.674;2023-04-06T12:19:24;48.40;37.32;62.88;;
4048;Laerm;2038;51.728;6.674;2023-04-06T12:21:53;50.19;37.70;66.66;;
4048;Laerm;2038;51.728;6.674;2023-04-06T12:24:20;45.64;36.20;57.48;;
4048;Laerm;2038;51.728;6.674;2023-04-06T12:26:47;48.03;36.20;61.27;;
4048;Laerm;2038;51.728;6.674;2023-04-06T12:29:13;45.82;33.44;60.86;;
4048;Laerm;2038;51.728;6.674;2023-04-06T12:31:39;46.69;34.31;67.35;;
4048;Laerm;2038;51.728;6.674;2023-04-06T12:34:07;47.72;36.45;60.45;;
4048;Laerm;2038;51.728;6.674;2023-04-06T12:36:33;47.40;36.20;66.89;;
4048;Laerm;2038;51.728;6.674;2023-04-06T12:39:00;45.38;35.59;56.97;;
4048;Laerm;2038;51.728;6.674;2023-04-06T12:41:28;44.99;35.94;54.49;;
4048;Laerm;2038;51.728;6.674;2023-04-06T12:43:55;49.75;37.32;63.02;;
4048;Laerm;2038;51.728;6.674;2023-04-06T12:46:22;48.38;36.20;62.66;;
4048;Laerm;2038;51.728;6.674;2023-04-06T12:48:48;46.54;38.21;58.10;;
4048;Laerm;2038;51.728;6.674;2023-04-06T12:51:15;48.45;35.36;62.58;;
4048;Laerm;2038;51.728;6.674;2023-04-06T12:53:43;46.87;34.69;57.78;;
4048;Laerm;2038;51.728;6.674;2023-04-06T12:56:17;50.27;36.45;64.57;;
4048;Laerm;2038;51.728;6.674;2023-04-06T12:58:45;48.70;36.69;62.86;;
4048;Laerm;2038;51.728;6.674;2023-04-06T13:01:11;49.62;37.12;65.15;;
4048;Laerm;2038;51.728;6.674;2023-04-06T13:03:40;48.20;37.52;62.78;;
4048;Laerm;2038;51.728;6.674;2023-04-06T13:06:06;47.29;37.88;58.49;;
4048;Laerm;2038;51.728;6.674;2023-04-06T13:08:34;46.75;37.35;57.17;;
4048;Laerm;2038;51.728;6.674;2023-04-06T13:11:02;47.86;36.69;57.70;;
4048;Laerm;2038;51.728;6.674;2023-04-06T13:13:29;49.80;37.32;63.79;;
4048;Laerm;2038;51.728;6.674;2023-04-06T13:16:01;47.21;34.69;59.84;;
4048;Laerm;2038;51.728;6.674;2023-04-06T13:18:29;51.00;37.32;64.90;;
4048;Laerm;2038;51.728;6.674;2023-04-06T13:20:57;49.51;39.08;58.68;;
4048;Laerm;2038;51.728;6.674;2023-04-06T13:23:23;47.69;40.03;60.57;;
4048;Laerm;2038;51.728;6.674;2023-04-06T13:26:02;49.56;39.34;61.58;;
4048;Laerm;2038;51.728;6.674;2023-04-06T13:28:30;44.50;37.32;56.91;;
4048;Laerm;2038;51.728;6.674;2023-04-06T13:30:58;51.24;37.52;65.33;;
4048;Laerm;2038;51.728;6.674;2023-04-06T13:33:24;48.21;38.67;62.24;;
4048;Laerm;2038;51.728;6.674;2023-04-06T13:35:51;48.19;38.02;59.65;;
4048;Laerm;2038;51.728;6.674;2023-04-06T13:38:17;47.95;37.52;58.73;;
4048;Laerm;2038;51.728;6.674;2023-04-06T13:40:44;49.98;38.21;60.45;;
4048;Laerm;2038;51.728;6.674;2023-04-06T13:43:10;49.30;36.91;59.89;;
4048;Laerm;2038;51.728;6.674;2023-04-06T13:45:38;49.21;38.21;60.98;;
4048;Laerm;2038;51.728;6.674;2023-04-06T13:48:05;51.50;38.67;65.22;;
4048;Laerm;2038;51.728;6.674;2023-04-06T13:50:32;47.70;37.32;60.90;;
4048;Laerm;2038;51.728;6.674;2023-04-06T13:52:58;49.61;38.37;61.67;;
4048;Laerm;2038;51.728;6.674;2023-04-06T13:55:24;46.81;39.70;58.82;;
4048;Laerm;2038;51.728;6.674;2023-04-06T13:57:51;47.27;40.53;56.27;;
4048;Laerm;2038;51.728;6.674;2023-04-06T14:00:18;51.96;40.43;65.97;;
4048;Laerm;2038;51.728;6.674;2023-04-06T14:02:45;50.02;39.34;62.63;;
4048;Laerm;2038;51.728;6.674;2023-04-06T14:05:11;48.48;39.81;61.55;;
4048;Laerm;2038;51.728;6.674;2023-04-06T14:07:38;50.70;39.70;63.72;;
4048;Laerm;2038;51.728;6.674;2023-04-06T14:10:06;51.15;39.34;64.12;;
4048;Laerm;2038;51.728;6.674;2023-04-06T14:12:41;49.47;38.81;64.97;;
4048;Laerm;2038;51.728;6.674;2023-04-06T14:15:10;48.30;38.95;59.59;;
4048;Laerm;2038;51.728;6.674;2023-04-06T14:17:37;46.98;39.70;58.25;;